createdAt,value
2018-09-26T00:01:45.265Z,92.00
2018-09-26T00:04:18.289Z,90.67
2018-09-26T00:06:46.838Z,91.05
2018-09-26T00:09:15.354Z,91.69
2018-09-26T00:11:43.930Z,91.98
2018-09-26T00:14:12.453Z,92.27
2018-09-26T00:16:41.055Z,91.73
2018-09-26T00:19:09.622Z,92.70
2018-09-26T00:21:38.248Z,92.22
2018-09-26T00:24:06.833Z,92.52
2018-09-26T00:26:35.393Z,92.16
2018-09-26T00:29:03.924Z,93.17
2018-09-26T00:31:32.493Z,92.49
2018-09-26T00:34:01.021Z,91.95
2018-09-26T00:36:29.568Z,92.98
2018-09-26T00:38:58.105Z,94.57
2018-09-26T00:41:26.613Z,93.92
2018-09-26T00:43:55.168Z,92.23
2018-09-26T00:46:23.696Z,91.25
2018-09-26T00:48:52.260Z,92.25
2018-09-26T00:51:21.627Z,92.90
2018-09-26T00:53:50.173Z,92.80
2018-09-26T00:56:18.697Z,93.47
2018-09-26T00:58:47.254Z,92.40
2018-09-26T01:01:15.802Z,91.28
2018-09-26T01:03:44.443Z,91.22
2018-09-26T01:06:12.984Z,91.72
2018-09-26T01:08:41.568Z,91.91
2018-09-26T01:11:10.112Z,91.78
2018-09-26T01:13:38.671Z,91.95
2018-09-26T01:16:07.462Z,92.66
2018-09-26T01:18:36.032Z,91.32
2018-09-26T01:21:04.557Z,90.56
2018-09-26T01:23:33.125Z,90.03
2018-09-26T01:26:01.657Z,90.77
2018-09-26T01:28:30.282Z,91.97
2018-09-26T01:30:59.172Z,91.93
2018-09-26T01:33:27.750Z,92.07
2018-09-26T01:35:56.566Z,91.09
2018-09-26T01:38:25.182Z,91.59
2018-09-26T01:40:53.758Z,91.70
2018-09-26T01:43:22.325Z,91.46
2018-09-26T01:45:50.999Z,91.78
2018-09-26T01:48:20.012Z,93.01
2018-09-26T01:50:49.025Z,93.09
2018-09-26T01:53:17.743Z,93.85
2018-09-26T01:55:46.465Z,93.42
2018-09-26T01:58:15.018Z,94.34
2018-09-26T02:00:43.840Z,94.86
2018-09-26T02:03:12.400Z,94.11
2018-09-26T02:05:40.921Z,95.16
2018-09-26T02:08:09.484Z,95.64
2018-09-26T02:10:38.006Z,95.87
2018-09-26T02:13:07.036Z,95.51
2018-09-26T02:15:35.580Z,92.71
2018-09-26T02:18:04.177Z,93.17
2018-09-26T02:20:32.777Z,93.05
2018-09-26T02:23:01.383Z,92.72
2018-09-26T02:25:29.937Z,94.31
2018-09-26T02:27:58.541Z,94.38
2018-09-26T02:30:27.081Z,92.24
2018-09-26T02:32:55.697Z,91.93
2018-09-26T02:35:24.261Z,92.70
2018-09-26T02:37:52.805Z,93.87
2018-09-26T02:40:21.457Z,93.11
2018-09-26T02:42:50.008Z,92.99
2018-09-26T02:45:18.585Z,92.40
2018-09-26T02:47:47.136Z,91.20
2018-09-26T02:50:15.721Z,90.94
2018-09-26T02:52:44.278Z,91.26
2018-09-26T02:55:12.864Z,90.57
2018-09-26T02:57:41.427Z,90.21
2018-09-26T03:00:10.053Z,91.37
2018-09-26T03:02:38.604Z,92.85
2018-09-26T03:05:07.234Z,92.86
2018-09-26T03:07:35.817Z,92.36
2018-09-26T03:10:04.427Z,91.94
2018-09-26T03:12:32.979Z,90.95
2018-09-26T03:15:01.573Z,90.41
2018-09-26T03:17:30.166Z,92.26
2018-09-26T03:19:58.829Z,92.31
2018-09-26T03:22:27.388Z,91.05
2018-09-26T03:24:55.978Z,90.77
2018-09-26T03:27:24.602Z,93.21
2018-09-26T03:29:53.190Z,93.29
2018-09-26T03:32:21.754Z,92.68
2018-09-26T03:34:50.351Z,95.08
2018-09-26T03:37:18.898Z,95.62
2018-09-26T03:39:47.597Z,95.52
2018-09-26T03:42:16.217Z,95.25
2018-09-26T03:44:44.885Z,95.39
2018-09-26T03:47:14.135Z,93.86
2018-09-26T03:49:44.475Z,93.42
2018-09-26T03:52:13.599Z,94.70
2018-09-26T03:54:42.198Z,94.08
2018-09-26T03:57:10.891Z,96.38
2018-09-26T03:59:39.832Z,97.92
2018-09-26T04:02:08.385Z,96.54
2018-09-26T04:04:37.030Z,95.59
2018-09-26T04:07:06.193Z,94.11
2018-09-26T04:09:36.583Z,92.06
2018-09-26T04:12:06.395Z,91.96
2018-09-26T04:14:36.240Z,92.19
2018-09-26T04:17:05.953Z,93.27
2018-09-26T04:19:35.742Z,93.72
2018-09-26T04:22:05.794Z,94.18
2018-09-26T04:24:35.703Z,93.27
2018-09-26T04:27:05.484Z,95.82
2018-09-26T04:29:35.414Z,95.21
2018-09-26T04:32:05.043Z,94.75
2018-09-26T04:34:33.649Z,95.31
2018-09-26T04:37:03.304Z,95.90
2018-09-26T04:39:33.458Z,95.73
2018-09-26T04:42:04.257Z,95.85
2018-09-26T04:44:33.777Z,95.52
2018-09-26T04:47:03.369Z,94.67
2018-09-26T04:49:32.477Z,94.21
2018-09-26T04:52:01.036Z,94.45
2018-09-26T04:54:29.804Z,93.73
2018-09-26T04:56:58.373Z,94.30
2018-09-26T04:59:26.945Z,94.34
2018-09-26T05:01:55.513Z,93.93
2018-09-26T05:04:24.039Z,93.77
2018-09-26T05:06:52.593Z,93.95
2018-09-26T05:09:21.110Z,93.74
2018-09-26T05:11:49.667Z,93.58
2018-09-26T05:14:18.422Z,93.54
2018-09-26T05:16:48.406Z,92.79
2018-09-26T05:19:17.803Z,92.57
2018-09-26T05:21:46.631Z,92.35
2018-09-26T05:24:15.415Z,93.38
2018-09-26T05:26:43.984Z,93.84
2018-09-26T05:29:12.507Z,93.33
2018-09-26T05:31:41.084Z,94.23
2018-09-26T05:34:09.619Z,93.80
2018-09-26T05:36:38.993Z,93.08
2018-09-26T05:39:09.992Z,95.26
2018-09-26T05:41:38.600Z,96.55
2018-09-26T05:44:07.153Z,95.27
2018-09-26T05:46:35.738Z,93.63
2018-09-26T05:49:04.313Z,93.12
2018-09-26T05:51:32.873Z,92.60
2018-09-26T05:54:01.389Z,93.65
2018-09-26T05:56:29.955Z,94.15
2018-09-26T05:58:58.503Z,95.25
2018-09-26T06:01:27.234Z,95.99
2018-09-26T06:03:55.761Z,95.51
2018-09-26T06:06:24.561Z,94.65
2018-09-26T06:08:53.081Z,95.94
2018-09-26T06:11:21.837Z,96.85
2018-09-26T06:13:50.457Z,95.26
2018-09-26T06:16:19.025Z,95.51
2018-09-26T06:18:47.583Z,95.17
2018-09-26T06:21:16.158Z,94.23
2018-09-26T06:23:44.689Z,94.37
2018-09-26T06:26:13.229Z,93.84
2018-09-26T06:28:41.793Z,93.62
2018-09-26T06:31:10.324Z,93.66
2018-09-26T06:33:38.888Z,91.77
2018-09-26T06:36:07.805Z,91.28
2018-09-26T06:38:36.363Z,91.94
2018-09-26T06:41:05.058Z,91.24
2018-09-26T06:43:33.624Z,90.87
2018-09-26T06:46:02.166Z,90.60
2018-09-26T06:48:30.750Z,89.67
2018-09-26T06:50:59.315Z,88.37
2018-09-26T06:53:27.881Z,87.85
2018-09-26T06:55:56.729Z,86.49
2018-09-26T06:58:25.326Z,86.36
2018-09-26T07:00:53.862Z,86.95
2018-09-26T07:37:44.469Z,77.45
2018-09-26T07:40:13.029Z,77.12
2018-09-26T07:42:41.617Z,76.03
2018-09-26T07:45:10.201Z,74.99
2018-09-26T07:47:38.782Z,74.01
2018-09-26T07:50:07.353Z,74.09
2018-09-26T07:52:35.937Z,71.95
2018-09-26T07:55:04.539Z,72.04
2018-09-26T07:57:33.118Z,70.72
2018-09-26T08:00:01.694Z,71.21
2018-09-26T08:02:30.266Z,70.50
2018-09-26T08:04:58.861Z,69.96
2018-09-26T08:07:27.414Z,69.35
2018-09-26T08:09:56.037Z,67.90
2018-09-26T08:12:24.641Z,67.60
2018-09-26T08:14:53.229Z,67.11
2018-09-26T08:17:21.783Z,67.61
2018-09-26T08:19:56.067Z,67.28
2018-09-26T08:22:31.076Z,67.59
2018-09-26T08:25:01.184Z,66.73
2018-09-26T08:27:33.230Z,66.14
2018-09-26T08:30:04.076Z,66.29
2018-09-26T08:32:36.253Z,65.63
2018-09-26T08:35:05.925Z,65.04
2018-09-26T08:37:37.417Z,64.51
2018-09-26T08:40:09.313Z,64.17
2018-09-26T08:42:44.384Z,64.46
2018-09-26T08:45:15.992Z,63.21
2018-09-26T08:47:46.446Z,63.33
2018-09-26T08:50:16.445Z,62.97
2018-09-26T08:52:47.072Z,63.98
2018-09-26T08:55:17.849Z,61.94
2018-09-26T08:57:51.621Z,62.56
2018-09-26T09:00:27.969Z,60.15
2018-09-26T09:03:00.482Z,61.58
2018-09-26T09:05:38.530Z,59.99
2018-09-26T09:08:11.101Z,60.44
2018-09-26T09:10:42.174Z,59.47
2018-09-26T09:13:13.458Z,60.21
2018-09-26T09:15:45.077Z,59.07
2018-09-26T09:18:15.804Z,58.22
2018-09-26T09:20:46.050Z,58.81
2018-09-26T09:23:15.865Z,56.90
2018-09-26T09:25:46.776Z,58.54
2018-09-26T09:28:24.163Z,57.58
2018-09-26T09:30:56.194Z,58.24
2018-09-26T09:33:28.108Z,57.99
2018-09-26T09:35:59.610Z,58.90
2018-09-26T09:38:33.081Z,58.45
2018-09-26T09:41:02.107Z,57.62
2018-09-26T09:43:34.894Z,57.58
2018-09-26T09:46:06.846Z,57.89
2018-09-26T09:48:37.724Z,56.63
2018-09-26T09:51:13.154Z,56.72
2018-09-26T09:53:42.652Z,58.34
2018-09-26T09:56:12.090Z,58.00
2018-09-26T09:58:41.580Z,59.06
2018-09-26T10:01:15.767Z,58.50
2018-09-26T10:03:46.659Z,57.21
2018-09-26T10:06:17.802Z,57.34
2018-09-26T10:08:48.951Z,57.51
2018-09-26T10:11:19.838Z,58.17
2018-09-26T10:13:48.524Z,57.01
2018-09-26T10:16:19.031Z,56.75
2018-09-26T10:18:50.454Z,56.48
2018-09-26T10:21:21.941Z,57.24
2018-09-26T10:23:54.822Z,56.35
2018-09-26T10:26:26.204Z,56.09
2018-09-26T10:28:57.019Z,55.46
2018-09-26T10:31:29.268Z,54.95
2018-09-26T10:33:57.850Z,55.19
2018-09-26T10:36:26.501Z,56.06
2018-09-26T10:38:55.054Z,55.12
2018-09-26T10:41:23.653Z,56.42
2018-09-26T10:43:52.234Z,56.71
2018-09-26T10:46:20.853Z,55.98
2018-09-26T10:48:49.689Z,56.39
2018-09-26T10:51:18.296Z,55.91
2018-09-26T10:53:46.845Z,55.78
2018-09-26T10:56:15.455Z,54.02
2018-09-26T10:58:43.996Z,53.33
2018-09-26T11:01:12.585Z,55.46
2018-09-26T11:03:41.148Z,53.57
2018-09-26T11:06:09.733Z,54.89
2018-09-26T11:08:38.546Z,54.20
2018-09-26T11:11:07.553Z,51.99
2018-09-26T11:13:36.120Z,51.61
2018-09-26T11:16:04.687Z,52.37
2018-09-26T11:18:33.214Z,51.50
2018-09-26T11:21:01.769Z,52.95
2018-09-26T11:23:30.300Z,51.79
2018-09-26T11:25:58.860Z,52.54
2018-09-26T11:28:27.497Z,51.37
2018-09-26T11:30:55.967Z,51.91
2018-09-26T11:33:24.530Z,52.83
2018-09-26T11:35:53.060Z,52.52
2018-09-26T11:38:21.656Z,51.13
2018-09-26T11:40:50.174Z,50.14
2018-09-26T11:43:18.941Z,48.46
2018-09-26T11:45:47.466Z,50.01
2018-09-26T11:48:16.494Z,50.63
2018-09-26T11:50:45.023Z,51.02
2018-09-26T11:53:14.642Z,49.03
2018-09-26T11:55:43.521Z,50.85
2018-09-26T11:58:13.095Z,50.20
2018-09-26T12:00:45.772Z,49.41
2018-09-26T12:03:14.378Z,48.10
2018-09-26T12:05:46.530Z,49.56
2018-09-26T12:08:15.195Z,49.88
2018-09-26T12:10:43.717Z,48.54
2018-09-26T12:13:12.352Z,46.43
2018-09-26T12:15:40.906Z,46.18
2018-09-26T12:18:09.554Z,45.46
2018-09-26T12:20:38.061Z,46.84
2018-09-26T12:23:06.714Z,47.14
2018-09-26T12:25:38.601Z,47.24
2018-09-26T12:28:07.413Z,47.92
2018-09-26T12:30:35.945Z,47.73
2018-09-26T12:33:04.547Z,47.18
2018-09-26T12:35:33.162Z,45.59
2018-09-26T12:38:01.756Z,47.76
2018-09-26T12:40:30.333Z,46.67
2018-09-26T12:42:58.912Z,44.90
2018-09-26T12:45:28.445Z,45.41
2018-09-26T12:47:57.027Z,45.10
2018-09-26T12:50:25.931Z,44.68
2018-09-26T12:52:54.526Z,44.85
2018-09-26T12:55:23.072Z,44.32
2018-09-26T12:57:52.226Z,43.24
2018-09-26T13:00:21.099Z,43.70
2018-09-26T13:02:49.607Z,42.80
2018-09-26T13:05:18.174Z,42.55
2018-09-26T13:07:50.539Z,43.15
2018-09-26T13:10:25.492Z,43.65
2018-09-26T13:12:54.081Z,43.98
2018-09-26T13:15:22.706Z,42.55
2018-09-26T13:17:51.343Z,41.65
2018-09-26T13:20:19.956Z,41.21
2018-09-26T13:22:51.048Z,41.40
2018-09-26T13:25:21.727Z,41.38
2018-09-26T13:27:52.632Z,40.69
2018-09-26T13:30:23.548Z,40.44
2018-09-26T13:32:58.288Z,40.25
2018-09-26T13:35:29.370Z,40.77
2018-09-26T13:38:01.006Z,41.65
2018-09-26T13:40:30.052Z,42.93
2018-09-26T13:42:58.726Z,39.98
2018-09-26T13:45:27.242Z,41.11
2018-09-26T13:47:55.797Z,40.46
2018-09-26T13:50:27.452Z,41.23
2018-09-26T13:53:03.123Z,40.96
2018-09-26T13:55:34.021Z,40.66
2018-09-26T13:58:04.870Z,40.54
2018-09-26T14:00:34.385Z,39.25
2018-09-26T14:03:03.169Z,38.59
2018-09-26T14:05:31.829Z,39.16
2018-09-26T14:08:00.446Z,38.91
2018-09-26T14:10:29.024Z,39.79
2018-09-26T14:12:57.966Z,39.32
2018-09-26T14:15:26.788Z,38.38
2018-09-26T14:17:55.801Z,39.09
2018-09-26T14:20:41.487Z,37.59
2018-09-26T14:23:10.953Z,40.70
2018-09-26T14:25:43.834Z,38.46
2018-09-26T14:28:12.889Z,36.62
2018-09-26T14:30:42.059Z,36.68
2018-09-26T14:33:10.957Z,35.85
2018-09-26T14:35:39.890Z,35.98
2018-09-26T14:38:08.665Z,35.04
2018-09-26T14:40:41.195Z,36.85
2018-09-26T14:43:12.674Z,34.45
2018-09-26T14:45:41.469Z,32.77
2018-09-26T14:48:10.190Z,33.92
2018-09-26T14:50:38.909Z,36.00
2018-09-26T14:53:07.591Z,34.04
2018-09-26T14:55:36.729Z,34.99
2018-09-26T14:58:05.633Z,35.29
2018-09-26T15:00:34.413Z,36.69
2018-09-26T15:03:03.065Z,35.63
2018-09-26T15:05:32.032Z,35.76
2018-09-26T15:08:00.706Z,34.17
2018-09-26T15:10:29.370Z,34.11
2018-09-26T15:13:00.081Z,33.09
2018-09-26T15:15:35.915Z,32.23
2018-09-26T15:18:14.851Z,34.02
2018-09-26T15:20:45.889Z,31.37
2018-09-26T15:23:17.372Z,29.34
2018-09-26T15:25:48.179Z,31.56
2018-09-26T15:28:19.183Z,32.60
2018-09-26T15:30:50.190Z,32.63
2018-09-26T15:33:21.823Z,33.00
2018-09-26T15:36:07.421Z,32.28
2018-09-26T15:38:36.255Z,31.39
2018-09-26T15:41:04.945Z,31.21
2018-09-26T15:43:33.586Z,32.03
2018-09-26T15:46:09.491Z,32.37
2018-09-26T15:48:38.193Z,30.83
2018-09-26T15:51:06.832Z,30.56
2018-09-26T15:53:35.516Z,31.46
2018-09-26T15:56:07.972Z,31.28
2018-09-26T15:58:36.704Z,33.03
2018-09-26T16:01:05.414Z,33.71
2018-09-26T16:03:34.502Z,33.61
2018-09-26T16:06:03.526Z,33.47
2018-09-26T16:08:32.225Z,33.08
2018-09-26T16:11:01.517Z,33.49
2018-09-26T16:13:32.845Z,34.40
2018-09-26T16:16:01.850Z,33.45
2018-09-26T16:18:36.530Z,33.91
2018-09-26T16:21:12.395Z,33.70
2018-09-26T16:23:45.082Z,33.75
2018-09-26T16:26:18.858Z,35.54
2018-09-26T16:28:49.545Z,35.94
2018-09-26T16:31:19.969Z,36.26
2018-09-26T16:33:52.738Z,38.31
2018-09-26T16:36:21.541Z,40.62
2018-09-26T16:38:55.356Z,43.05
2018-09-26T16:41:25.963Z,41.15
2018-09-26T16:43:57.881Z,47.73
2018-09-26T16:49:15.002Z,48.37
2018-09-26T16:52:00.212Z,47.93
2018-09-26T16:54:37.230Z,48.20
2018-09-26T16:57:09.816Z,45.94
2018-09-26T16:59:38.555Z,48.03
2018-09-26T17:02:09.407Z,48.18
2018-09-26T17:04:41.310Z,49.70
2018-09-26T17:07:14.649Z,51.88
2018-09-26T17:09:44.925Z,50.95
2018-09-26T17:12:14.238Z,51.40
2018-09-26T17:14:47.622Z,52.00
2018-09-26T17:17:17.510Z,56.21
2018-09-26T17:19:46.469Z,62.40
2018-09-26T17:22:17.121Z,61.95
2018-09-26T17:24:49.170Z,65.81
2018-09-26T17:27:21.739Z,64.81
2018-09-26T17:29:54.185Z,65.99
2018-09-26T17:32:26.403Z,65.05
2018-09-26T17:34:55.533Z,63.89
2018-09-26T17:37:25.405Z,63.08
2018-09-26T17:39:54.545Z,62.81
2018-09-26T17:42:30.316Z,64.42
2018-09-26T17:44:59.061Z,64.91
2018-09-26T17:47:32.171Z,64.45
2018-09-26T17:50:06.123Z,66.18
2018-09-26T17:52:39.313Z,65.49
2018-09-26T17:55:11.393Z,66.30
2018-09-26T17:57:40.837Z,66.81
2018-09-26T18:00:12.724Z,66.40
2018-09-26T18:02:44.250Z,66.23
2018-09-26T18:05:15.384Z,68.26
2018-09-26T18:07:43.957Z,67.71
2018-09-26T18:10:12.574Z,68.12
2018-09-26T18:12:41.493Z,68.89
2018-09-26T18:15:11.997Z,72.75
2018-09-26T18:17:40.745Z,75.27
2018-09-26T18:20:09.292Z,75.83
2018-09-26T18:22:37.869Z,72.61
2018-09-26T18:25:06.517Z,71.15
2018-09-26T18:27:35.134Z,73.41
2018-09-26T18:30:03.782Z,74.76
2018-09-26T18:32:32.353Z,74.26
2018-09-26T18:35:04.769Z,75.19
2018-09-26T18:37:35.705Z,76.29
2018-09-26T18:40:07.798Z,79.57
2018-09-26T18:42:38.717Z,78.92
2018-09-26T18:45:08.405Z,85.55
2018-09-26T18:47:36.992Z,82.09
2018-09-26T18:50:05.942Z,80.52
2018-09-26T18:52:34.565Z,85.68
2018-09-26T18:55:06.304Z,84.96
2018-09-26T18:57:37.190Z,82.07
2018-09-26T19:00:05.776Z,79.42
2018-09-26T19:02:34.401Z,79.74
2018-09-26T19:05:03.551Z,80.56
2018-09-26T19:07:33.401Z,80.97
2018-09-26T19:10:02.358Z,82.55
2018-09-26T19:12:37.813Z,82.91
2018-09-26T19:15:06.659Z,84.26
2018-09-26T19:17:35.404Z,87.23
2018-09-26T19:20:04.388Z,84.42
2018-09-26T19:22:35.321Z,81.78
2018-09-26T19:25:03.848Z,83.19
2018-09-26T19:27:38.499Z,84.41
2018-09-26T19:30:07.292Z,81.93
2018-09-26T19:32:35.846Z,82.78
2018-09-26T19:35:04.834Z,82.04
2018-09-26T19:37:33.392Z,83.47
2018-09-26T19:40:01.937Z,82.78
2018-09-26T19:42:30.485Z,81.50
2018-09-26T19:44:59.069Z,82.88
2018-09-26T19:47:27.561Z,85.10
2018-09-26T19:49:56.101Z,84.44
2018-09-26T19:52:24.647Z,85.15
2018-09-26T19:54:53.177Z,85.88
2018-09-26T19:57:21.688Z,88.53
2018-09-26T19:59:50.215Z,89.06
2018-09-26T20:02:19.916Z,89.58
2018-09-26T20:04:53.246Z,86.02
2018-09-26T20:07:24.022Z,85.51
2018-09-26T20:09:55.960Z,86.27
2018-09-26T20:12:27.201Z,86.42
2018-09-26T20:14:59.735Z,87.24
2018-09-26T20:17:34.923Z,86.62
2018-09-26T20:20:06.918Z,84.85
2018-09-26T20:22:38.916Z,84.55
2018-09-26T20:25:08.454Z,84.64
2018-09-26T20:27:39.729Z,84.50
2018-09-26T20:30:11.342Z,83.62
2018-09-26T20:32:39.884Z,83.38
2018-09-26T20:35:09.108Z,83.59
2018-09-26T20:37:40.509Z,84.48
2018-09-26T20:40:12.644Z,86.58
2018-09-26T20:42:43.287Z,89.99
2018-09-26T20:45:14.687Z,91.61
2018-09-26T20:47:46.010Z,92.14
2018-09-26T20:50:18.033Z,90.10
2018-09-26T20:52:48.333Z,92.17
2018-09-26T20:55:17.638Z,93.08
2018-09-26T20:57:47.170Z,91.05
2018-09-26T21:00:15.725Z,91.42
2018-09-26T21:02:44.262Z,91.96
2018-09-26T21:05:12.884Z,92.41
2018-09-26T21:07:42.249Z,93.05
2018-09-26T21:10:10.897Z,90.75
2018-09-26T21:12:39.463Z,91.01
2018-09-26T21:15:08.199Z,90.96
2018-09-26T21:17:36.812Z,90.40
2018-09-26T21:20:07.743Z,90.73
2018-09-26T21:22:37.904Z,92.10
2018-09-26T21:25:09.513Z,93.30
2018-09-26T21:27:40.321Z,92.31
2018-09-26T21:30:12.470Z,91.68
2018-09-26T21:32:42.942Z,90.74
2018-09-26T21:35:14.054Z,95.74
2018-09-26T21:37:45.609Z,94.50
2018-09-26T21:40:17.518Z,96.39
2018-09-26T21:42:46.110Z,95.81
2018-09-26T21:45:15.677Z,94.02
2018-09-26T21:47:44.184Z,93.62
2018-09-26T21:50:12.844Z,91.41
2018-09-26T21:52:48.256Z,92.94
2018-09-26T21:55:18.421Z,93.02
2018-09-26T21:57:48.294Z,91.45
2018-09-26T22:00:18.140Z,93.22
2018-09-26T22:02:47.918Z,94.80
2018-09-26T22:05:17.025Z,94.99
2018-09-26T22:07:47.045Z,95.64
2018-09-26T22:10:15.845Z,94.84
2018-09-26T22:12:44.921Z,94.73
2018-09-26T22:15:18.793Z,95.05
2018-09-26T22:17:47.301Z,94.34
2018-09-26T22:20:16.936Z,93.22
2018-09-26T22:22:46.146Z,93.03
2018-09-26T22:25:17.528Z,93.02
2018-09-26T22:27:47.358Z,92.93
2018-09-26T22:30:16.707Z,94.44
2018-09-26T22:32:46.306Z,93.94
2018-09-26T22:35:15.198Z,92.73
2018-09-26T22:37:45.268Z,92.76
2018-09-26T22:40:14.537Z,93.32
2018-09-26T22:42:43.056Z,93.73
2018-09-26T22:45:12.209Z,93.38
2018-09-26T22:47:41.741Z,94.05
2018-09-26T22:50:11.865Z,94.21
2018-09-26T22:52:40.540Z,93.81
2018-09-26T22:55:09.967Z,94.81
2018-09-26T22:57:38.744Z,94.52
2018-09-26T23:00:07.960Z,94.20
2018-09-26T23:02:37.557Z,92.25
2018-09-26T23:05:06.747Z,91.53
2018-09-26T23:07:35.441Z,93.20
2018-09-26T23:10:04.094Z,95.11
2018-09-26T23:12:32.721Z,94.97
2018-09-26T23:15:01.329Z,95.41
2018-09-26T23:17:29.912Z,94.79
2018-09-26T23:19:58.457Z,93.09
2018-09-26T23:22:27.025Z,93.82
2018-09-26T23:24:55.570Z,93.12
2018-09-26T23:27:24.160Z,93.25
2018-09-26T23:29:52.743Z,94.14
2018-09-26T23:32:21.377Z,94.29
2018-09-26T23:34:49.921Z,95.66
2018-09-26T23:37:18.503Z,96.69
2018-09-26T23:39:47.060Z,94.11
2018-09-26T23:42:15.654Z,96.03
2018-09-26T23:44:44.202Z,95.87
2018-09-26T23:47:12.819Z,94.30
2018-09-26T23:49:41.360Z,95.69
2018-09-26T23:52:09.929Z,95.85
2018-09-26T23:54:38.529Z,94.77
2018-09-26T23:57:07.096Z,93.34
2018-09-26T23:59:35.641Z,94.11
